createdAt,value
2022-12-01T00:00:54.148Z,9.90
2022-12-01T00:03:21.125Z,11.32
2022-12-01T00:05:47.690Z,10.70
2022-12-01T00:08:14.149Z,9.30
2022-12-01T00:10:40.527Z,9.30
2022-12-01T00:13:06.930Z,11.48
2022-12-01T00:15:36.146Z,9.90
2022-12-01T00:18:05.434Z,10.07
2022-12-01T00:20:35.707Z,12.48
2022-12-01T00:23:02.555Z,11.45
2022-12-01T00:25:29.469Z,11.82
2022-12-01T00:27:56.050Z,9.50
2022-12-01T00:30:22.992Z,11.73
2022-12-01T00:32:50.260Z,11.65
2022-12-01T00:35:17.356Z,11.18
2022-12-01T00:37:43.816Z,8.40
2022-12-01T00:40:11.063Z,10.07
2022-12-01T00:42:37.607Z,9.98
2022-12-01T00:45:04.554Z,13.43
2022-12-01T00:47:31.030Z,12.85
2022-12-01T00:49:57.459Z,13.40
2022-12-01T00:52:23.948Z,10.73
2022-12-01T00:54:50.413Z,12.80
2022-12-01T00:57:17.122Z,10.93
2022-12-01T00:59:45.728Z,13.02
2022-12-01T01:04:38.922Z,13.63
2022-12-01T01:09:33.374Z,12.38
2022-12-01T01:11:59.852Z,10.75
2022-12-01T01:14:27.061Z,12.25
2022-12-01T01:16:55.099Z,15.40
2022-12-01T01:19:22.192Z,11.85
2022-12-01T01:21:48.591Z,11.68
2022-12-01T01:24:15.514Z,12.77
2022-12-01T01:26:42.074Z,10.73
2022-12-01T01:29:08.646Z,11.50
2022-12-01T01:34:01.770Z,13.00
2022-12-01T01:38:55.703Z,13.25
2022-12-01T01:41:23.805Z,12.18
2022-12-01T01:43:51.738Z,11.70
2022-12-01T01:46:23.825Z,10.48
2022-12-01T01:49:08.136Z,16.05
2022-12-01T01:51:53.204Z,12.90
2022-12-01T01:54:23.805Z,12.75
2022-12-01T01:56:52.886Z,14.02
2022-12-01T01:59:24.079Z,14.18
2022-12-01T02:02:02.956Z,12.32
2022-12-01T02:04:30.040Z,13.75
2022-12-01T02:06:56.446Z,15.75
2022-12-01T02:09:22.868Z,13.45
2022-12-01T02:12:26.289Z,15.40
2022-12-01T02:15:22.002Z,12.05
2022-12-01T02:18:11.799Z,15.60
2022-12-01T02:20:54.488Z,14.90
2022-12-01T02:23:35.871Z,12.23
2022-12-01T02:26:14.597Z,12.25
2022-12-01T02:28:48.471Z,14.90
2022-12-01T02:31:21.422Z,12.45
2022-12-01T02:33:59.056Z,17.33
2022-12-01T02:36:37.269Z,19.52
2022-12-01T02:39:10.899Z,17.30
2022-12-01T02:41:42.890Z,12.85
2022-12-01T02:44:35.744Z,12.80
2022-12-01T02:47:15.795Z,12.57
2022-12-01T02:49:48.611Z,16.55
2022-12-01T02:52:16.752Z,14.55
2022-12-01T02:54:45.132Z,12.90
2022-12-01T02:57:13.456Z,14.32
2022-12-01T02:59:43.111Z,14.35
2022-12-01T03:02:20.579Z,13.98
2022-12-01T03:05:01.378Z,12.93
2022-12-01T03:07:52.736Z,14.30
2022-12-01T03:10:25.374Z,11.98
2022-12-01T03:13:00.825Z,13.20
2022-12-01T03:15:35.580Z,12.45
2022-12-01T03:18:20.843Z,12.65
2022-12-01T03:20:59.239Z,13.98
2022-12-01T03:23:30.816Z,13.35
2022-12-01T03:25:59.398Z,10.93
2022-12-01T03:28:32.990Z,12.75
2022-12-01T03:31:09.410Z,14.40
2022-12-01T03:33:43.153Z,12.15
2022-12-01T03:36:27.252Z,13.63
2022-12-01T03:39:02.612Z,11.65
2022-12-01T03:41:35.353Z,12.05
2022-12-01T03:44:09.514Z,14.05
2022-12-01T03:46:51.814Z,11.95
2022-12-01T03:49:19.306Z,11.35
2022-12-01T03:52:00.643Z,12.10
2022-12-01T03:54:55.088Z,11.35
2022-12-01T03:57:29.409Z,12.32
2022-12-01T03:59:56.467Z,12.38
2022-12-01T04:02:27.482Z,11.50
2022-12-01T04:04:54.226Z,11.43
2022-12-01T04:09:48.096Z,11.45
2022-12-01T04:12:30.248Z,12.02
2022-12-01T04:14:57.912Z,12.70
2022-12-01T04:17:25.773Z,12.02
2022-12-01T04:19:52.667Z,12.10
2022-12-01T04:22:19.641Z,12.05
2022-12-01T04:24:46.333Z,12.60
2022-12-01T04:29:39.056Z,14.55
2022-12-01T04:32:05.479Z,13.50
2022-12-01T04:34:31.996Z,14.25
2022-12-01T04:36:58.427Z,11.25
2022-12-01T04:39:24.862Z,13.23
2022-12-01T04:41:51.631Z,12.20
2022-12-01T04:44:18.106Z,12.63
2022-12-01T04:46:44.849Z,12.65
2022-12-01T04:49:11.463Z,13.10
2022-12-01T04:51:38.023Z,15.70
2022-12-01T04:56:33.461Z,14.32
2022-12-01T04:59:00.852Z,19.60
2022-12-01T05:01:27.982Z,15.75
2022-12-01T05:03:54.681Z,16.33
2022-12-01T05:08:50.552Z,14.38
2022-12-01T05:11:19.005Z,14.55
2022-12-01T05:13:47.098Z,14.15
2022-12-01T05:16:15.954Z,15.88
2022-12-01T05:18:43.110Z,15.60
2022-12-01T05:21:11.053Z,13.07
2022-12-01T05:23:38.734Z,16.42
2022-12-01T05:26:07.724Z,18.65
2022-12-01T05:28:34.299Z,14.88
2022-12-01T05:31:01.165Z,16.27
2022-12-01T05:33:29.052Z,12.40
2022-12-01T05:35:55.931Z,15.75
2022-12-01T05:38:22.535Z,14.18
2022-12-01T05:43:16.913Z,16.23
2022-12-01T05:45:43.338Z,14.35
2022-12-01T05:48:09.884Z,18.23
2022-12-01T05:50:39.309Z,16.33
2022-12-01T05:53:06.841Z,16.38
2022-12-01T05:55:36.490Z,16.00
2022-12-01T05:58:03.043Z,14.77
2022-12-01T06:00:29.499Z,15.40
2022-12-01T06:02:55.933Z,16.27
2022-12-01T06:05:22.464Z,16.42
2022-12-01T06:10:15.514Z,15.05
2022-12-01T06:12:41.920Z,16.77
2022-12-01T06:15:08.926Z,17.38
2022-12-01T06:17:39.919Z,16.83
2022-12-01T06:20:08.210Z,17.65
2022-12-01T06:22:34.639Z,18.48
2022-12-01T06:25:01.160Z,18.17
2022-12-01T06:27:27.578Z,18.33
2022-12-01T06:29:54.154Z,18.92
2022-12-01T06:32:20.751Z,18.45
2022-12-01T06:34:47.175Z,19.05
2022-12-01T06:37:15.564Z,17.88
2022-12-01T06:39:42.365Z,20.17
2022-12-01T06:42:08.823Z,21.75
2022-12-01T06:44:35.231Z,20.35
2022-12-01T06:47:01.621Z,20.75
2022-12-01T06:49:28.086Z,21.05
2022-12-01T06:51:54.530Z,21.80
2022-12-01T06:54:21.319Z,20.25
2022-12-01T06:56:47.698Z,25.15
2022-12-01T06:59:14.270Z,20.27
2022-12-01T07:01:41.086Z,22.52
2022-12-01T07:04:07.495Z,19.48
2022-12-01T07:06:38.539Z,22.30
2022-12-01T07:09:05.043Z,23.27
2022-12-01T07:11:32.246Z,23.20
2022-12-01T07:13:58.837Z,22.50
2022-12-01T07:18:52.547Z,21.85
2022-12-01T07:21:19.069Z,22.23
2022-12-01T07:23:45.695Z,22.88
2022-12-01T07:28:43.554Z,20.73
2022-12-01T07:31:13.465Z,20.27
2022-12-01T07:33:40.099Z,20.15
2022-12-01T07:36:07.208Z,19.20
2022-12-01T07:38:34.671Z,21.67
2022-12-01T07:41:20.232Z,20.67
2022-12-01T07:43:50.154Z,21.15
2022-12-01T07:46:23.106Z,19.10
2022-12-01T07:48:50.620Z,19.70
2022-12-01T07:51:17.640Z,20.40
2022-12-01T07:53:46.291Z,21.60
2022-12-01T07:56:13.376Z,19.77
2022-12-01T07:58:40.283Z,20.52
2022-12-01T08:01:14.990Z,21.27
2022-12-01T08:03:42.399Z,20.10
2022-12-01T08:06:10.128Z,19.65
2022-12-01T08:08:39.063Z,21.65
2022-12-01T08:11:09.620Z,23.45
2022-12-01T08:13:36.046Z,23.27
2022-12-01T08:16:07.815Z,23.80
2022-12-01T08:18:38.877Z,22.67
2022-12-01T08:21:07.333Z,24.30
2022-12-01T08:23:34.258Z,20.58
2022-12-01T08:26:05.260Z,22.42
2022-12-01T08:28:32.349Z,24.35
2022-12-01T08:30:58.779Z,22.27
2022-12-01T08:33:25.582Z,23.92
2022-12-01T08:35:54.688Z,24.55
2022-12-01T08:38:21.126Z,19.15
2022-12-01T08:40:47.672Z,25.80
2022-12-01T08:46:01.466Z,26.15
2022-12-01T08:48:29.949Z,26.75
2022-12-01T08:51:03.684Z,25.55
2022-12-01T08:53:31.239Z,24.92
2022-12-01T08:56:10.628Z,24.15
2022-12-01T08:58:37.626Z,23.33
2022-12-01T09:01:07.823Z,19.77
2022-12-01T09:03:35.251Z,23.70
2022-12-01T09:06:10.424Z,22.75
2022-12-01T09:08:37.642Z,24.63
2022-12-01T09:11:07.815Z,25.70
2022-12-01T09:13:35.951Z,27.05
2022-12-01T09:16:08.730Z,28.60
2022-12-01T09:18:35.309Z,25.92
2022-12-01T09:21:16.881Z,23.15
2022-12-01T09:23:43.885Z,24.23
2022-12-01T09:26:13.568Z,22.50
2022-12-01T09:28:40.500Z,26.33
2022-12-01T09:31:09.293Z,25.88
2022-12-01T09:33:36.602Z,24.52
2022-12-01T09:36:04.581Z,24.25
2022-12-01T09:38:32.639Z,23.23
2022-12-01T09:41:09.078Z,22.75
2022-12-01T09:43:45.788Z,23.38
2022-12-01T09:46:18.690Z,24.30
2022-12-01T09:48:47.131Z,27.63
2022-12-01T09:51:21.426Z,24.17
2022-12-01T09:53:56.497Z,26.45
2022-12-01T09:56:33.539Z,27.17
2022-12-01T09:59:02.674Z,21.35
2022-12-01T10:01:47.886Z,22.73
2022-12-01T10:04:26.411Z,22.70
2022-12-01T10:07:23.706Z,21.75
2022-12-01T10:09:57.882Z,23.77
2022-12-01T10:12:27.746Z,20.15
2022-12-01T10:15:16.357Z,20.45
2022-12-01T10:17:58.737Z,23.13
2022-12-01T10:21:06.593Z,22.23
2022-12-01T10:23:50.948Z,22.70
2022-12-01T10:26:17.617Z,22.33
2022-12-01T10:31:46.328Z,19.75
2022-12-01T10:34:35.358Z,20.02
2022-12-01T10:37:02.704Z,23.25
2022-12-01T10:39:43.531Z,22.00
2022-12-01T10:42:32.504Z,19.23
2022-12-01T10:45:06.998Z,22.75
2022-12-01T10:47:33.848Z,20.08
2022-12-01T10:50:00.306Z,21.50
2022-12-01T10:52:39.359Z,20.25
2022-12-01T10:55:24.795Z,22.00
2022-12-01T10:57:53.844Z,20.67
2022-12-01T11:00:58.169Z,21.52
2022-12-01T11:03:25.919Z,23.10
2022-12-01T11:05:57.955Z,19.67
2022-12-01T11:08:30.556Z,20.25
2022-12-01T11:10:57.258Z,17.20
2022-12-01T11:16:04.247Z,20.33
2022-12-01T11:18:36.545Z,19.35
2022-12-01T11:21:12.401Z,18.67
2022-12-01T11:23:46.349Z,22.33
2022-12-01T11:26:15.003Z,18.00
2022-12-01T11:29:00.960Z,19.70
2022-12-01T11:31:46.101Z,21.25
2022-12-01T11:34:21.978Z,21.48
2022-12-01T11:36:52.855Z,19.80
2022-12-01T11:39:28.146Z,20.30
2022-12-01T11:41:57.813Z,18.90
2022-12-01T11:47:23.322Z,20.90
2022-12-01T11:50:00.279Z,22.40
2022-12-01T11:52:46.885Z,20.08
2022-12-01T11:55:13.636Z,18.52
2022-12-01T11:57:45.742Z,20.13
2022-12-01T12:00:16.996Z,19.48
2022-12-01T12:02:55.462Z,22.95
2022-12-01T12:05:24.789Z,20.25
2022-12-01T12:08:16.200Z,23.90
2022-12-01T12:11:07.730Z,21.52
2022-12-01T12:13:51.538Z,19.33
2022-12-01T12:16:41.537Z,20.17
2022-12-01T12:20:06.255Z,20.05
2022-12-01T12:22:44.026Z,25.85
2022-12-01T12:25:19.497Z,21.20
2022-12-01T12:28:23.204Z,19.73
2022-12-01T12:31:28.470Z,16.50
2022-12-01T12:34:00.776Z,17.45
2022-12-01T12:36:33.600Z,15.85
2022-12-01T12:39:16.951Z,17.10
2022-12-01T12:41:52.335Z,17.35
2022-12-01T12:44:41.549Z,17.75
2022-12-01T12:47:45.800Z,16.15
2022-12-01T12:50:30.340Z,17.17
2022-12-01T12:53:03.507Z,16.73
2022-12-01T12:55:38.380Z,16.25
2022-12-01T12:58:23.275Z,18.08
2022-12-01T13:00:56.560Z,13.20
2022-12-01T13:03:45.370Z,14.07
2022-12-01T13:06:27.043Z,17.23
2022-12-01T13:09:09.883Z,16.13
2022-12-01T13:11:44.908Z,12.20
2022-12-01T13:14:17.408Z,16.20
2022-12-01T13:16:47.586Z,13.55
2022-12-01T13:19:30.779Z,12.35
2022-12-01T13:21:59.796Z,15.60
2022-12-01T13:24:29.309Z,14.02
2022-12-01T13:27:13.127Z,15.23
2022-12-01T13:29:45.991Z,14.23
2022-12-01T13:32:42.992Z,14.02
2022-12-01T13:35:26.912Z,13.20
2022-12-01T13:38:13.884Z,12.80
2022-12-01T13:40:43.501Z,15.15
2022-12-01T13:43:20.690Z,15.05
2022-12-01T13:48:48.883Z,14.07
2022-12-01T13:51:17.282Z,11.05
2022-12-01T13:54:13.749Z,13.63
2022-12-01T13:57:00.518Z,13.77
2022-12-01T13:59:46.159Z,14.95
2022-12-01T14:02:17.441Z,14.75
2022-12-01T14:04:44.143Z,12.52
2022-12-01T14:09:52.117Z,17.30
2022-12-01T14:12:29.052Z,18.65
2022-12-01T14:15:02.716Z,16.63
2022-12-01T14:17:32.562Z,21.27
2022-12-01T14:20:14.591Z,12.98
2022-12-01T14:22:44.337Z,14.00
2022-12-01T14:25:23.759Z,12.80
2022-12-01T14:27:56.133Z,15.85
2022-12-01T14:30:46.532Z,15.90
2022-12-01T14:33:45.771Z,16.98
2022-12-01T14:36:24.462Z,18.23
2022-12-01T14:38:57.344Z,19.50
2022-12-01T14:41:26.991Z,16.13
2022-12-01T14:44:04.821Z,16.13
2022-12-01T14:46:40.471Z,18.67
2022-12-01T14:49:13.968Z,18.88
2022-12-01T14:51:45.974Z,19.10
2022-12-01T14:54:20.229Z,15.23
2022-12-01T14:56:51.193Z,19.35
2022-12-01T14:59:24.202Z,18.35
2022-12-01T15:01:54.771Z,15.35
2022-12-01T15:04:21.571Z,17.83
2022-12-01T15:06:54.615Z,16.25
2022-12-01T15:09:36.972Z,16.05
2022-12-01T15:12:07.474Z,20.00
2022-12-01T15:14:48.593Z,18.92
2022-12-01T15:17:31.163Z,18.70
2022-12-01T15:19:58.709Z,17.88
2022-12-01T15:22:30.134Z,15.82
2022-12-01T15:25:17.049Z,17.50
2022-12-01T15:27:43.852Z,16.87
2022-12-01T15:30:17.002Z,16.60
2022-12-01T15:32:45.661Z,17.92
2022-12-01T15:35:22.932Z,19.23
2022-12-01T15:37:51.323Z,17.77
2022-12-01T15:43:15.073Z,19.30
2022-12-01T15:46:09.987Z,19.40
2022-12-01T15:48:37.508Z,19.42
2022-12-01T15:51:20.061Z,20.30
2022-12-01T15:53:56.412Z,19.08
2022-12-01T15:56:34.523Z,22.30
2022-12-01T15:59:04.616Z,21.85
2022-12-01T16:01:32.463Z,20.92
2022-12-01T16:04:04.296Z,21.33
2022-12-01T16:06:34.615Z,23.55
2022-12-01T16:09:05.655Z,21.45
2022-12-01T16:11:33.945Z,21.23
2022-12-01T16:14:24.694Z,19.80
2022-12-01T16:16:51.546Z,24.40
2022-12-01T16:19:18.011Z,19.75
2022-12-01T16:21:57.680Z,21.00
2022-12-01T16:24:35.558Z,21.90
2022-12-01T16:27:15.571Z,21.30
2022-12-01T16:30:01.544Z,19.90
2022-12-01T16:32:38.202Z,24.58
2022-12-01T16:35:26.139Z,22.45
2022-12-01T16:37:54.243Z,20.77
2022-12-01T16:40:20.908Z,19.50
2022-12-01T16:45:14.960Z,19.27
2022-12-01T16:50:13.844Z,20.55
2022-12-01T16:52:44.996Z,21.88
2022-12-01T16:55:38.610Z,21.05
2022-12-01T16:58:05.215Z,21.42
2022-12-01T17:00:32.355Z,23.20
2022-12-01T17:02:59.575Z,25.73
2022-12-01T17:05:26.535Z,19.48
2022-12-01T17:07:53.604Z,19.02
2022-12-01T17:10:20.875Z,26.88
2022-12-01T17:12:47.466Z,25.73
2022-12-01T17:15:14.574Z,22.73
2022-12-01T17:17:41.401Z,21.50
2022-12-01T17:20:08.804Z,25.23
2022-12-01T17:22:36.012Z,24.52
2022-12-01T17:25:03.816Z,22.88
2022-12-01T17:27:31.836Z,19.48
2022-12-01T17:30:01.649Z,23.02
2022-12-01T17:32:28.434Z,21.70
2022-12-01T17:37:22.082Z,27.52
2022-12-01T17:39:50.177Z,22.27
2022-12-01T17:42:16.998Z,22.05
2022-12-01T17:44:43.486Z,23.95
2022-12-01T17:49:37.120Z,24.27
2022-12-01T17:52:04.875Z,24.10
2022-12-01T17:54:31.480Z,23.00
2022-12-01T17:56:58.567Z,26.58
2022-12-01T17:59:25.261Z,20.92
2022-12-01T18:01:52.106Z,20.98
2022-12-01T18:04:18.878Z,21.17
2022-12-01T18:06:50.669Z,24.50
2022-12-01T18:09:20.266Z,19.58
2022-12-01T18:14:17.127Z,21.42
2022-12-01T18:16:44.939Z,21.55
2022-12-01T18:19:11.634Z,22.98
2022-12-01T18:21:38.687Z,25.15
2022-12-01T18:24:08.720Z,23.42
2022-12-01T18:26:36.467Z,22.08
2022-12-01T18:29:16.426Z,24.25
2022-12-01T18:31:43.616Z,22.48
2022-12-01T18:34:11.065Z,24.40
2022-12-01T18:36:40.477Z,22.58
2022-12-01T18:39:08.811Z,23.23
2022-12-01T18:41:36.551Z,26.23
2022-12-01T18:44:03.875Z,26.70
2022-12-01T18:46:31.260Z,24.00
2022-12-01T18:49:00.737Z,24.95
2022-12-01T18:51:28.715Z,24.67
2022-12-01T18:53:57.143Z,24.33
2022-12-01T18:56:24.189Z,23.88
2022-12-01T18:58:58.698Z,23.92
2022-12-01T19:01:28.544Z,23.67
2022-12-01T19:03:55.589Z,21.73
2022-12-01T19:06:22.553Z,21.15
2022-12-01T19:08:49.919Z,26.75
2022-12-01T19:11:16.965Z,23.75
2022-12-01T19:13:43.910Z,25.58
2022-12-01T19:16:13.717Z,23.48
2022-12-01T19:18:40.564Z,22.42
2022-12-01T19:21:09.875Z,21.80
2022-12-01T19:23:37.613Z,30.63
2022-12-01T19:26:11.131Z,20.05
2022-12-01T19:28:38.147Z,24.85
2022-12-01T19:31:06.776Z,25.33
2022-12-01T19:33:33.906Z,23.45
2022-12-01T19:38:34.118Z,21.77
2022-12-01T19:43:27.595Z,23.38
2022-12-01T19:48:21.161Z,24.30
2022-12-01T19:50:48.104Z,24.92
2022-12-01T19:53:14.671Z,22.67
2022-12-01T19:55:41.351Z,21.60
2022-12-01T19:58:08.301Z,23.67
2022-12-01T20:00:35.002Z,21.30
2022-12-01T20:05:28.141Z,23.85
2022-12-01T20:07:54.703Z,23.70
2022-12-01T20:10:21.579Z,25.10
2022-12-01T20:12:48.190Z,25.10
2022-12-01T20:17:43.069Z,22.02
2022-12-01T20:20:11.339Z,23.10
2022-12-01T20:22:38.632Z,22.33
2022-12-01T20:25:06.376Z,22.35
2022-12-01T20:27:33.055Z,22.08
2022-12-01T20:32:26.200Z,26.65
2022-12-01T20:34:53.372Z,20.75
2022-12-01T20:37:20.241Z,21.45
2022-12-01T20:39:47.458Z,24.45
2022-12-01T20:42:13.927Z,22.67
2022-12-01T20:44:40.733Z,25.65
2022-12-01T20:47:07.731Z,25.30
2022-12-01T20:49:34.370Z,22.67
2022-12-01T20:54:30.108Z,24.75
2022-12-01T20:56:57.867Z,25.00
2022-12-01T20:59:24.692Z,23.85
2022-12-01T21:01:51.168Z,25.00
2022-12-01T21:04:17.866Z,25.95
2022-12-01T21:06:44.785Z,24.35
2022-12-01T21:09:13.014Z,25.17
2022-12-01T21:12:06.954Z,23.13
2022-12-01T21:14:41.839Z,21.52
2022-12-01T21:17:28.115Z,24.58
2022-12-01T21:20:05.226Z,20.52
2022-12-01T21:22:31.866Z,19.20
2022-12-01T21:27:37.545Z,23.60
2022-12-01T21:30:15.403Z,23.85
2022-12-01T21:32:44.185Z,25.55
2022-12-01T21:35:31.369Z,26.48
2022-12-01T21:38:01.580Z,28.20
2022-12-01T21:40:28.425Z,29.05
2022-12-01T21:43:01.114Z,24.30
2022-12-01T21:45:32.012Z,25.63
2022-12-01T21:48:06.102Z,23.15
2022-12-01T21:50:32.744Z,22.33
2022-12-01T21:55:26.054Z,23.10
2022-12-01T21:57:54.162Z,21.92
2022-12-01T22:00:36.880Z,21.40
2022-12-01T22:03:09.343Z,22.05
2022-12-01T22:05:42.226Z,21.20
2022-12-01T22:08:28.472Z,18.45
2022-12-01T22:11:18.930Z,19.25
2022-12-01T22:13:51.718Z,21.63
2022-12-01T22:16:28.395Z,19.88
2022-12-01T22:18:57.614Z,18.70
2022-12-01T22:21:23.977Z,16.83
2022-12-01T22:24:01.117Z,18.00
2022-12-01T22:26:27.889Z,18.08
2022-12-01T22:28:57.904Z,17.55
2022-12-01T22:31:24.704Z,19.92
2022-12-01T22:34:03.277Z,19.10
2022-12-01T22:36:31.773Z,21.60
2022-12-01T22:38:58.549Z,19.15
2022-12-01T22:41:26.686Z,18.33
2022-12-01T22:43:59.549Z,18.80
2022-12-01T22:46:33.030Z,20.13
2022-12-01T22:49:10.747Z,22.67
2022-12-01T22:51:51.557Z,22.80
2022-12-01T22:54:17.908Z,20.75
2022-12-01T22:56:47.340Z,17.48
2022-12-01T22:59:27.701Z,21.42
2022-12-01T23:01:57.334Z,18.98
2022-12-01T23:04:31.119Z,20.77
2022-12-01T23:07:08.504Z,21.70
2022-12-01T23:09:44.543Z,19.17
2022-12-01T23:12:10.894Z,20.08
2022-12-01T23:14:44.790Z,19.80
2022-12-01T23:17:18.591Z,21.27
2022-12-01T23:19:45.466Z,19.33
2022-12-01T23:22:12.430Z,22.92
2022-12-01T23:24:39.772Z,21.23
2022-12-01T23:27:07.008Z,24.05
2022-12-01T23:29:34.488Z,22.58
2022-12-01T23:32:00.910Z,20.83
2022-12-01T23:34:28.371Z,20.45
2022-12-01T23:36:54.972Z,22.52
2022-12-01T23:41:54.625Z,23.35
2022-12-01T23:44:26.610Z,26.67
2022-12-01T23:46:57.233Z,24.83
2022-12-01T23:49:30.259Z,24.02
2022-12-01T23:51:59.036Z,24.00
2022-12-01T23:54:29.459Z,23.92
2022-12-01T23:57:00.620Z,19.60
2022-12-01T23:59:28.158Z,21.95
